sensor_id;sensor_type;location;lat;lon;timestamp;pressure;altitude;pressure_sealevel;temperature;humidity
50867;BME280;36839;51.946;21.002;2023-01-10T00:00:55;99185.25;;;5.40;100.00
50867;BME280;36839;51.946;21.002;2023-01-10T00:03:26;99189.40;;;5.39;100.00
50867;BME280;36839;51.946;21.002;2023-01-10T00:05:53;99190.38;;;5.39;100.00
50867;BME280;36839;51.946;21.002;2023-01-10T00:08:21;99190.05;;;5.38;100.00
50867;BME280;36839;51.946;21.002;2023-01-10T00:10:48;99193.34;;;5.39;100.00
50867;BME280;36839;51.946;21.002;2023-01-10T00:13:16;99192.34;;;5.38;100.00
50867;BME280;36839;51.946;21.002;2023-01-10T00:15:54;99191.46;;;5.37;100.00
50867;BME280;36839;51.946;21.002;2023-01-10T00:18:21;99197.81;;;5.37;100.00
50867;BME280;36839;51.946;21.002;2023-01-10T00:20:49;99201.21;;;5.36;100.00
50867;BME280;36839;51.946;21.002;2023-01-10T00:23:16;99206.06;;;5.35;100.00
50867;BME280;36839;51.946;21.002;2023-01-10T00:25:43;99208.04;;;5.35;100.00
50867;BME280;36839;51.946;21.002;2023-01-10T00:28:10;99212.70;;;5.35;100.00
50867;BME280;36839;51.946;21.002;2023-01-10T00:30:52;99213.95;;;5.33;100.00
50867;BME280;36839;51.946;21.002;2023-01-10T00:33:33;99211.42;;;5.33;100.00
50867;BME280;36839;51.946;21.002;2023-01-10T00:36:03;99218.11;;;5.34;100.00
50867;BME280;36839;51.946;21.002;2023-01-10T00:38:31;99219.26;;;5.33;100.00
50867;BME280;36839;51.946;21.002;2023-01-10T00:41:02;99219.10;;;5.33;100.00
50867;BME280;36839;51.946;21.002;2023-01-10T00:43:49;99229.48;;;5.32;100.00
50867;BME280;36839;51.946;21.002;2023-01-10T00:46:22;99221.77;;;5.32;100.00
50867;BME280;36839;51.946;21.002;2023-01-10T00:48:50;99221.34;;;5.32;100.00
50867;BME280;36839;51.946;21.002;2023-01-10T00:51:17;99225.69;;;5.31;100.00
50867;BME280;36839;51.946;21.002;2023-01-10T00:53:44;99231.30;;;5.29;100.00
50867;BME280;36839;51.946;21.002;2023-01-10T00:56:12;99233.88;;;5.27;100.00
50867;BME280;36839;51.946;21.002;2023-01-10T00:58:39;99242.02;;;5.26;100.00
50867;BME280;36839;51.946;21.002;2023-01-10T01:01:06;99242.30;;;5.27;100.00
50867;BME280;36839;51.946;21.002;2023-01-10T01:03:34;99245.64;;;5.27;100.00
50867;BME280;36839;51.946;21.002;2023-01-10T01:06:05;99246.24;;;5.27;100.00
50867;BME280;36839;51.946;21.002;2023-01-10T01:08:32;99250.46;;;5.27;100.00
50867;BME280;36839;51.946;21.002;2023-01-10T01:11:00;99254.73;;;5.27;100.00
50867;BME280;36839;51.946;21.002;2023-01-10T01:13:27;99258.08;;;5.28;100.00
50867;BME280;36839;51.946;21.002;2023-01-10T01:15:59;99263.66;;;5.28;100.00
50867;BME280;36839;51.946;21.002;2023-01-10T01:18:29;99266.27;;;5.26;100.00
50867;BME280;36839;51.946;21.002;2023-01-10T01:20:57;99266.17;;;5.27;100.00
50867;BME280;36839;51.946;21.002;2023-01-10T01:23:32;99267.59;;;5.27;100.00
50867;BME280;36839;51.946;21.002;2023-01-10T01:26:02;99270.21;;;5.26;100.00
50867;BME280;36839;51.946;21.002;2023-01-10T01:28:32;99270.33;;;5.26;100.00
50867;BME280;36839;51.946;21.002;2023-01-10T01:31:06;99271.31;;;5.26;100.00
50867;BME280;36839;51.946;21.002;2023-01-10T01:33:34;99268.40;;;5.25;100.00
50867;BME280;36839;51.946;21.002;2023-01-10T01:36:01;99271.64;;;5.25;100.00
50867;BME280;36839;51.946;21.002;2023-01-10T01:38:28;99271.41;;;5.25;100.00
50867;BME280;36839;51.946;21.002;2023-01-10T01:40:55;99274.85;;;5.23;100.00
50867;BME280;36839;51.946;21.002;2023-01-10T01:43:27;99275.61;;;5.22;100.00
50867;BME280;36839;51.946;21.002;2023-01-10T01:45:59;99277.64;;;5.22;100.00
50867;BME280;36839;51.946;21.002;2023-01-10T01:48:30;99278.38;;;5.20;100.00
50867;BME280;36839;51.946;21.002;2023-01-10T01:51:09;99276.38;;;5.19;100.00
50867;BME280;36839;51.946;21.002;2023-01-10T01:56:25;99278.02;;;5.20;100.00
50867;BME280;36839;51.946;21.002;2023-01-10T01:59:08;99277.36;;;5.19;100.00
50867;BME280;36839;51.946;21.002;2023-01-10T02:01:40;99279.67;;;5.21;100.00
50867;BME280;36839;51.946;21.002;2023-01-10T02:04:14;99282.02;;;5.19;100.00
50867;BME280;36839;51.946;21.002;2023-01-10T02:06:45;99281.95;;;5.19;100.00
50867;BME280;36839;51.946;21.002;2023-01-10T02:09:21;99279.11;;;5.17;100.00
50867;BME280;36839;51.946;21.002;2023-01-10T02:11:51;99278.67;;;5.17;100.00
50867;BME280;36839;51.946;21.002;2023-01-10T02:14:19;99282.00;;;5.16;100.00
50867;BME280;36839;51.946;21.002;2023-01-10T02:16:47;99283.81;;;5.16;100.00
50867;BME280;36839;51.946;21.002;2023-01-10T02:19:23;99283.16;;;5.17;100.00
50867;BME280;36839;51.946;21.002;2023-01-10T02:27:39;99289.59;;;5.14;100.00
50867;BME280;36839;51.946;21.002;2023-01-10T02:33:29;99294.74;;;5.14;100.00
50867;BME280;36839;51.946;21.002;2023-01-10T02:38:54;99304.26;;;5.13;100.00
50867;BME280;36839;51.946;21.002;2023-01-10T02:44:05;99315.98;;;5.14;100.00
50867;BME280;36839;51.946;21.002;2023-01-10T02:46:35;99315.39;;;5.15;100.00
50867;BME280;36839;51.946;21.002;2023-01-10T02:49:04;99318.48;;;5.18;100.00
50867;BME280;36839;51.946;21.002;2023-01-10T02:51:31;99320.39;;;5.18;100.00
50867;BME280;36839;51.946;21.002;2023-01-10T03:01:58;99317.81;;;5.12;100.00
50867;BME280;36839;51.946;21.002;2023-01-10T03:05:07;99317.17;;;5.10;100.00
50867;BME280;36839;51.946;21.002;2023-01-10T03:07:45;99323.54;;;5.11;100.00
50867;BME280;36839;51.946;21.002;2023-01-10T03:13:20;99316.80;;;5.11;100.00
50867;BME280;36839;51.946;21.002;2023-01-10T03:15:49;99323.30;;;5.10;100.00
50867;BME280;36839;51.946;21.002;2023-01-10T03:18:26;99326.38;;;5.09;100.00
50867;BME280;36839;51.946;21.002;2023-01-10T03:20:55;99327.24;;;5.09;100.00
50867;BME280;36839;51.946;21.002;2023-01-10T03:23:25;99329.88;;;5.09;100.00
50867;BME280;36839;51.946;21.002;2023-01-10T03:25:55;99330.52;;;5.08;100.00
50867;BME280;36839;51.946;21.002;2023-01-10T03:29:06;99330.35;;;5.07;100.00
50867;BME280;36839;51.946;21.002;2023-01-10T03:31:21;99333.08;;;5.07;100.00
50867;BME280;36839;51.946;21.002;2023-01-10T03:33:49;99337.50;;;5.05;100.00
50867;BME280;36839;51.946;21.002;2023-01-10T03:36:29;99342.38;;;5.07;100.00
50867;BME280;36839;51.946;21.002;2023-01-10T03:41:56;99346.53;;;5.05;100.00
50867;BME280;36839;51.946;21.002;2023-01-10T03:44:44;99345.60;;;5.05;100.00
50867;BME280;36839;51.946;21.002;2023-01-10T03:47:44;99348.16;;;5.04;100.00
50867;BME280;36839;51.946;21.002;2023-01-10T03:50:14;99350.73;;;5.03;100.00
50867;BME280;36839;51.946;21.002;2023-01-10T03:52:44;99354.23;;;5.01;100.00
50867;BME280;36839;51.946;21.002;2023-01-10T03:55:14;99357.40;;;5.00;100.00
50867;BME280;36839;51.946;21.002;2023-01-10T03:57:43;99367.35;;;4.99;100.00
50867;BME280;36839;51.946;21.002;2023-01-10T04:00:12;99374.46;;;4.98;100.00
50867;BME280;36839;51.946;21.002;2023-01-10T04:02:39;99379.88;;;4.99;100.00
50867;BME280;36839;51.946;21.002;2023-01-10T04:05:07;99384.38;;;5.00;100.00
50867;BME280;36839;51.946;21.002;2023-01-10T04:07:34;99391.72;;;5.00;100.00
50867;BME280;36839;51.946;21.002;2023-01-10T04:10:04;99394.61;;;5.00;100.00
50867;BME280;36839;51.946;21.002;2023-01-10T04:12:31;99396.98;;;5.00;100.00
50867;BME280;36839;51.946;21.002;2023-01-10T04:14:58;99398.73;;;5.00;100.00
50867;BME280;36839;51.946;21.002;2023-01-10T04:17:26;99400.27;;;5.00;100.00
50867;BME280;36839;51.946;21.002;2023-01-10T04:19:53;99404.58;;;4.99;100.00
50867;BME280;36839;51.946;21.002;2023-01-10T04:22:20;99402.44;;;4.99;100.00
50867;BME280;36839;51.946;21.002;2023-01-10T04:24:47;99408.30;;;5.00;100.00
50867;BME280;36839;51.946;21.002;2023-01-10T04:27:17;99412.89;;;4.98;100.00
50867;BME280;36839;51.946;21.002;2023-01-10T04:29:45;99415.79;;;4.99;100.00
50867;BME280;36839;51.946;21.002;2023-01-10T04:32:12;99424.05;;;4.98;100.00
50867;BME280;36839;51.946;21.002;2023-01-10T04:34:39;99429.58;;;4.98;100.00
50867;BME280;36839;51.946;21.002;2023-01-10T04:37:06;99432.54;;;4.99;100.00
50867;BME280;36839;51.946;21.002;2023-01-10T04:39:33;99438.46;;;4.99;100.00
50867;BME280;36839;51.946;21.002;2023-01-10T04:42:00;99439.70;;;4.98;100.00
50867;BME280;36839;51.946;21.002;2023-01-10T04:44:27;99443.20;;;4.97;100.00
50867;BME280;36839;51.946;21.002;2023-01-10T04:46:54;99450.82;;;4.99;100.00
50867;BME280;36839;51.946;21.002;2023-01-10T04:49:21;99456.40;;;4.99;100.00
50867;BME280;36839;51.946;21.002;2023-01-10T04:51:49;99462.20;;;4.98;100.00
50867;BME280;36839;51.946;21.002;2023-01-10T04:54:19;99465.02;;;4.97;100.00
50867;BME280;36839;51.946;21.002;2023-01-10T04:56:46;99470.10;;;4.96;100.00
50867;BME280;36839;51.946;21.002;2023-01-10T04:59:14;99474.77;;;4.96;100.00
50867;BME280;36839;51.946;21.002;2023-01-10T05:01:41;99479.14;;;4.96;100.00
50867;BME280;36839;51.946;21.002;2023-01-10T05:04:09;99482.69;;;4.96;100.00
50867;BME280;36839;51.946;21.002;2023-01-10T05:06:36;99491.56;;;4.96;100.00
50867;BME280;36839;51.946;21.002;2023-01-10T05:09:07;99488.33;;;4.96;100.00
50867;BME280;36839;51.946;21.002;2023-01-10T05:11:34;99495.89;;;4.97;100.00
50867;BME280;36839;51.946;21.002;2023-01-10T05:14:01;99491.81;;;4.95;100.00
50867;BME280;36839;51.946;21.002;2023-01-10T05:16:28;99498.08;;;4.95;100.00
50867;BME280;36839;51.946;21.002;2023-01-10T05:18:55;99503.36;;;4.94;100.00
50867;BME280;36839;51.946;21.002;2023-01-10T05:21:23;99503.58;;;4.94;100.00
50867;BME280;36839;51.946;21.002;2023-01-10T05:23:50;99502.65;;;4.94;100.00
50867;BME280;36839;51.946;21.002;2023-01-10T05:26:21;99507.02;;;4.93;100.00
50867;BME280;36839;51.946;21.002;2023-01-10T05:28:50;99509.05;;;4.94;100.00
50867;BME280;36839;51.946;21.002;2023-01-10T05:31:18;99515.13;;;4.94;100.00
50867;BME280;36839;51.946;21.002;2023-01-10T05:33:47;99518.63;;;4.94;100.00
50867;BME280;36839;51.946;21.002;2023-01-10T05:36:15;99524.64;;;4.94;100.00
50867;BME280;36839;51.946;21.002;2023-01-10T05:38:43;99525.30;;;4.94;100.00
50867;BME280;36839;51.946;21.002;2023-01-10T05:41:10;99533.07;;;4.94;100.00
50867;BME280;36839;51.946;21.002;2023-01-10T05:43:38;99541.14;;;4.93;100.00
50867;BME280;36839;51.946;21.002;2023-01-10T05:46:05;99543.13;;;4.93;100.00
50867;BME280;36839;51.946;21.002;2023-01-10T05:48:32;99542.54;;;4.93;100.00
50867;BME280;36839;51.946;21.002;2023-01-10T05:50:59;99546.63;;;4.93;100.00
50867;BME280;36839;51.946;21.002;2023-01-10T05:53:26;99550.43;;;4.92;100.00
50867;BME280;36839;51.946;21.002;2023-01-10T05:55:58;99553.63;;;4.90;100.00
50867;BME280;36839;51.946;21.002;2023-01-10T05:58:26;99561.52;;;4.91;100.00
50867;BME280;36839;51.946;21.002;2023-01-10T06:00:54;99566.95;;;4.91;100.00
50867;BME280;36839;51.946;21.002;2023-01-10T06:03:22;99573.02;;;4.92;100.00
50867;BME280;36839;51.946;21.002;2023-01-10T06:05:54;99580.45;;;4.94;100.00
50867;BME280;36839;51.946;21.002;2023-01-10T06:08:21;99587.50;;;4.93;100.00
50867;BME280;36839;51.946;21.002;2023-01-10T06:10:49;99588.73;;;4.92;100.00
50867;BME280;36839;51.946;21.002;2023-01-10T06:13:15;99588.53;;;4.96;100.00
50867;BME280;36839;51.946;21.002;2023-01-10T06:15:43;99596.31;;;4.96;100.00
50867;BME280;36839;51.946;21.002;2023-01-10T06:18:10;99597.30;;;4.96;100.00
50867;BME280;36839;51.946;21.002;2023-01-10T06:20:37;99600.39;;;4.95;100.00
50867;BME280;36839;51.946;21.002;2023-01-10T06:23:04;99604.13;;;4.93;100.00
50867;BME280;36839;51.946;21.002;2023-01-10T06:25:33;99606.36;;;4.93;100.00
50867;BME280;36839;51.946;21.002;2023-01-10T06:28:03;99607.63;;;4.92;100.00
50867;BME280;36839;51.946;21.002;2023-01-10T06:30:30;99614.48;;;4.90;100.00
50867;BME280;36839;51.946;21.002;2023-01-10T06:33:00;99618.40;;;4.88;100.00
50867;BME280;36839;51.946;21.002;2023-01-10T06:35:28;99619.65;;;4.88;100.00
50867;BME280;36839;51.946;21.002;2023-01-10T06:37:56;99620.90;;;4.87;100.00
50867;BME280;36839;51.946;21.002;2023-01-10T06:40:26;99629.48;;;4.86;100.00
50867;BME280;36839;51.946;21.002;2023-01-10T06:42:53;99628.71;;;4.86;100.00
50867;BME280;36839;51.946;21.002;2023-01-10T06:45:20;99627.89;;;4.85;100.00
50867;BME280;36839;51.946;21.002;2023-01-10T06:47:47;99632.90;;;4.84;100.00
50867;BME280;36839;51.946;21.002;2023-01-10T06:50:15;99635.95;;;4.82;100.00
50867;BME280;36839;51.946;21.002;2023-01-10T06:52:42;99645.38;;;4.82;100.00
50867;BME280;36839;51.946;21.002;2023-01-10T06:55:09;99654.77;;;4.81;100.00
50867;BME280;36839;51.946;21.002;2023-01-10T06:57:36;99653.94;;;4.80;100.00
50867;BME280;36839;51.946;21.002;2023-01-10T07:00:06;99660.39;;;4.80;100.00
50867;BME280;36839;51.946;21.002;2023-01-10T07:02:33;99663.38;;;4.78;100.00
50867;BME280;36839;51.946;21.002;2023-01-10T07:05:01;99665.40;;;4.78;100.00
50867;BME280;36839;51.946;21.002;2023-01-10T07:07:28;99665.83;;;4.78;100.00
50867;BME280;36839;51.946;21.002;2023-01-10T07:09:55;99660.95;;;4.78;100.00
50867;BME280;36839;51.946;21.002;2023-01-10T07:12:21;99664.01;;;4.77;100.00
50867;BME280;36839;51.946;21.002;2023-01-10T07:14:48;99665.98;;;4.73;100.00
50867;BME280;36839;51.946;21.002;2023-01-10T07:17:15;99673.92;;;4.74;100.00
50867;BME280;36839;51.946;21.002;2023-01-10T07:19:42;99669.76;;;4.71;100.00
50867;BME280;36839;51.946;21.002;2023-01-10T07:22:10;99674.59;;;4.70;100.00
50867;BME280;36839;51.946;21.002;2023-01-10T07:24:37;99678.59;;;4.70;100.00
50867;BME280;36839;51.946;21.002;2023-01-10T07:27:04;99681.95;;;4.68;100.00
50867;BME280;36839;51.946;21.002;2023-01-10T07:29:31;99681.16;;;4.66;100.00
50867;BME280;36839;51.946;21.002;2023-01-10T07:31:58;99687.27;;;4.63;100.00
50867;BME280;36839;51.946;21.002;2023-01-10T07:34:27;99687.58;;;4.63;100.00
50867;BME280;36839;51.946;21.002;2023-01-10T07:36:54;99690.04;;;4.62;100.00
50867;BME280;36839;51.946;21.002;2023-01-10T07:39:21;99687.46;;;4.62;100.00
50867;BME280;36839;51.946;21.002;2023-01-10T07:41:49;99694.42;;;4.60;100.00
50867;BME280;36839;51.946;21.002;2023-01-10T07:44:16;99692.52;;;4.60;100.00
50867;BME280;36839;51.946;21.002;2023-01-10T07:46:43;99698.87;;;4.61;100.00
50867;BME280;36839;51.946;21.002;2023-01-10T07:49:10;99701.59;;;4.59;100.00
50867;BME280;36839;51.946;21.002;2023-01-10T07:51:39;99704.02;;;4.58;100.00
50867;BME280;36839;51.946;21.002;2023-01-10T07:54:06;99712.15;;;4.56;100.00
50867;BME280;36839;51.946;21.002;2023-01-10T07:56:33;99713.77;;;4.55;100.00
50867;BME280;36839;51.946;21.002;2023-01-10T07:59:01;99717.95;;;4.52;100.00
50867;BME280;36839;51.946;21.002;2023-01-10T08:01:29;99720.60;;;4.50;100.00
50867;BME280;36839;51.946;21.002;2023-01-10T08:03:57;99724.50;;;4.51;100.00
50867;BME280;36839;51.946;21.002;2023-01-10T08:06:24;99733.29;;;4.47;100.00
50867;BME280;36839;51.946;21.002;2023-01-10T08:08:52;99731.60;;;4.45;100.00
50867;BME280;36839;51.946;21.002;2023-01-10T08:11:19;99738.23;;;4.46;100.00
50867;BME280;36839;51.946;21.002;2023-01-10T08:13:46;99736.68;;;4.45;100.00
50867;BME280;36839;51.946;21.002;2023-01-10T08:16:13;99742.91;;;4.45;100.00
50867;BME280;36839;51.946;21.002;2023-01-10T08:18:41;99745.70;;;4.42;100.00
50867;BME280;36839;51.946;21.002;2023-01-10T08:21:08;99749.48;;;4.42;100.00
50867;BME280;36839;51.946;21.002;2023-01-10T08:23:36;99752.45;;;4.43;100.00
50867;BME280;36839;51.946;21.002;2023-01-10T08:26:03;99755.25;;;4.41;100.00
50867;BME280;36839;51.946;21.002;2023-01-10T08:28:32;99757.77;;;4.39;100.00
50867;BME280;36839;51.946;21.002;2023-01-10T08:31:04;99761.16;;;4.41;100.00
50867;BME280;36839;51.946;21.002;2023-01-10T08:33:31;99762.82;;;4.39;100.00
50867;BME280;36839;51.946;21.002;2023-01-10T08:35:59;99767.75;;;4.37;100.00
50867;BME280;36839;51.946;21.002;2023-01-10T08:38:26;99764.61;;;4.38;100.00
50867;BME280;36839;51.946;21.002;2023-01-10T08:40:55;99773.66;;;4.40;100.00
50867;BME280;36839;51.946;21.002;2023-01-10T08:43:24;99771.95;;;4.37;100.00
50867;BME280;36839;51.946;21.002;2023-01-10T08:45:51;99780.95;;;4.38;100.00
50867;BME280;36839;51.946;21.002;2023-01-10T08:48:18;99782.77;;;4.39;100.00
50867;BME280;36839;51.946;21.002;2023-01-10T08:50:45;99787.95;;;4.38;100.00
50867;BME280;36839;51.946;21.002;2023-01-10T08:53:12;99796.14;;;4.37;100.00
50867;BME280;36839;51.946;21.002;2023-01-10T08:55:39;99801.80;;;4.34;100.00
50867;BME280;36839;51.946;21.002;2023-01-10T08:58:08;99806.04;;;4.35;100.00
50867;BME280;36839;51.946;21.002;2023-01-10T09:00:35;99813.45;;;4.34;100.00
50867;BME280;36839;51.946;21.002;2023-01-10T09:03:05;99823.20;;;4.33;100.00
50867;BME280;36839;51.946;21.002;2023-01-10T09:05:32;99818.42;;;4.34;100.00
50867;BME280;36839;51.946;21.002;2023-01-10T09:08:01;99819.86;;;4.36;100.00
50867;BME280;36839;51.946;21.002;2023-01-10T09:10:29;99818.33;;;4.35;100.00
50867;BME280;36839;51.946;21.002;2023-01-10T09:12:57;99819.08;;;4.36;100.00
50867;BME280;36839;51.946;21.002;2023-01-10T09:15:32;99821.91;;;4.34;100.00
50867;BME280;36839;51.946;21.002;2023-01-10T09:18:03;99815.07;;;4.36;100.00
50867;BME280;36839;51.946;21.002;2023-01-10T09:20:33;99815.58;;;4.36;100.00
50867;BME280;36839;51.946;21.002;2023-01-10T09:23:16;99820.15;;;4.37;100.00
50867;BME280;36839;51.946;21.002;2023-01-10T09:25:46;99824.66;;;4.37;100.00
50867;BME280;36839;51.946;21.002;2023-01-10T09:28:13;99825.14;;;4.35;100.00
50867;BME280;36839;51.946;21.002;2023-01-10T09:30:40;99820.41;;;4.36;100.00
50867;BME280;36839;51.946;21.002;2023-01-10T09:33:08;99823.99;;;4.38;100.00
50867;BME280;36839;51.946;21.002;2023-01-10T09:35:37;99830.18;;;4.38;100.00
50867;BME280;36839;51.946;21.002;2023-01-10T09:38:07;99826.11;;;4.40;100.00
50867;BME280;36839;51.946;21.002;2023-01-10T09:53:51;99811.88;;;4.47;100.00
50867;BME280;36839;51.946;21.002;2023-01-10T09:56:21;99810.80;;;4.47;100.00
50867;BME280;36839;51.946;21.002;2023-01-10T09:58:49;99812.63;;;4.46;100.00
50867;BME280;36839;51.946;21.002;2023-01-10T10:01:18;99813.38;;;4.46;100.00
50867;BME280;36839;51.946;21.002;2023-01-10T10:06:43;99815.78;;;4.48;100.00
50867;BME280;36839;51.946;21.002;2023-01-10T10:09:18;99817.46;;;4.47;100.00
50867;BME280;36839;51.946;21.002;2023-01-10T10:28:34;99833.21;;;4.57;100.00
50867;BME280;36839;51.946;21.002;2023-01-10T10:34:21;99837.29;;;4.56;100.00
50867;BME280;36839;51.946;21.002;2023-01-10T10:36:51;99841.79;;;4.56;100.00
50867;BME280;36839;51.946;21.002;2023-01-10T10:39:25;99833.86;;;4.56;100.00
50867;BME280;36839;51.946;21.002;2023-01-10T10:41:56;99836.48;;;4.56;100.00
50867;BME280;36839;51.946;21.002;2023-01-10T10:44:34;99837.17;;;4.55;100.00
50867;BME280;36839;51.946;21.002;2023-01-10T10:47:12;99842.17;;;4.59;100.00
50867;BME280;36839;51.946;21.002;2023-01-10T10:49:55;99847.02;;;4.57;100.00
50867;BME280;36839;51.946;21.002;2023-01-10T10:52:28;99849.01;;;4.59;100.00
50867;BME280;36839;51.946;21.002;2023-01-10T10:54:58;99850.16;;;4.59;100.00
50867;BME280;36839;51.946;21.002;2023-01-10T10:57:29;99851.57;;;4.59;100.00
50867;BME280;36839;51.946;21.002;2023-01-10T10:59:59;99853.59;;;4.59;100.00
50867;BME280;36839;51.946;21.002;2023-01-10T11:02:37;99854.65;;;4.63;100.00
50867;BME280;36839;51.946;21.002;2023-01-10T11:05:24;99857.13;;;4.61;100.00
50867;BME280;36839;51.946;21.002;2023-01-10T11:07:59;99859.31;;;4.61;100.00
50867;BME280;36839;51.946;21.002;2023-01-10T11:10:28;99862.62;;;4.62;100.00
50867;BME280;36839;51.946;21.002;2023-01-10T11:13:12;99868.00;;;4.63;100.00
50867;BME280;36839;51.946;21.002;2023-01-10T11:15:45;99871.56;;;4.65;100.00
50867;BME280;36839;51.946;21.002;2023-01-10T11:18:14;99873.52;;;4.67;100.00
50867;BME280;36839;51.946;21.002;2023-01-10T11:28:51;99883.05;;;4.74;100.00
50867;BME280;36839;51.946;21.002;2023-01-10T11:31:29;99886.21;;;4.77;100.00
50867;BME280;36839;51.946;21.002;2023-01-10T11:33:57;99894.48;;;4.77;100.00
50867;BME280;36839;51.946;21.002;2023-01-10T11:36:25;99897.17;;;4.78;100.00
50867;BME280;36839;51.946;21.002;2023-01-10T11:39:00;99895.59;;;4.78;100.00
50867;BME280;36839;51.946;21.002;2023-01-10T11:41:28;99893.06;;;4.80;100.00
50867;BME280;36839;51.946;21.002;2023-01-10T11:44:19;99895.98;;;4.81;100.00
50867;BME280;36839;51.946;21.002;2023-01-10T11:46:48;99897.13;;;4.88;100.00
50867;BME280;36839;51.946;21.002;2023-01-10T11:49:36;99902.11;;;4.89;100.00
50867;BME280;36839;51.946;21.002;2023-01-10T11:52:23;99911.73;;;4.88;100.00
50867;BME280;36839;51.946;21.002;2023-01-10T11:54:57;99918.05;;;4.92;100.00
50867;BME280;36839;51.946;21.002;2023-01-10T11:57:29;99923.53;;;4.94;100.00
50867;BME280;36839;51.946;21.002;2023-01-10T11:59:58;99927.20;;;4.94;100.00
50867;BME280;36839;51.946;21.002;2023-01-10T12:02:29;99927.96;;;4.94;100.00
50867;BME280;36839;51.946;21.002;2023-01-10T12:05:00;99925.79;;;4.93;100.00
50867;BME280;36839;51.946;21.002;2023-01-10T12:07:30;99925.57;;;4.93;100.00
50867;BME280;36839;51.946;21.002;2023-01-10T12:10:21;99933.08;;;4.95;100.00
50867;BME280;36839;51.946;21.002;2023-01-10T12:12:57;99939.14;;;4.95;100.00
50867;BME280;36839;51.946;21.002;2023-01-10T12:18:00;99942.01;;;4.92;100.00
50867;BME280;36839;51.946;21.002;2023-01-10T12:20:30;99944.78;;;4.95;100.00
50867;BME280;36839;51.946;21.002;2023-01-10T12:23:04;99946.61;;;4.96;100.00
50867;BME280;36839;51.946;21.002;2023-01-10T12:25:37;99953.70;;;4.97;100.00
50867;BME280;36839;51.946;21.002;2023-01-10T12:28:26;99951.88;;;4.96;100.00
50867;BME280;36839;51.946;21.002;2023-01-10T12:30:57;99952.75;;;4.96;100.00
50867;BME280;36839;51.946;21.002;2023-01-10T12:33:29;99952.86;;;4.97;100.00
50867;BME280;36839;51.946;21.002;2023-01-10T12:36:09;99957.83;;;4.99;100.00
50867;BME280;36839;51.946;21.002;2023-01-10T12:38:47;99960.86;;;5.00;100.00
50867;BME280;36839;51.946;21.002;2023-01-10T12:44:40;99972.41;;;5.02;100.00
50867;BME280;36839;51.946;21.002;2023-01-10T12:49:57;99978.50;;;5.01;100.00
50867;BME280;36839;51.946;21.002;2023-01-10T12:54:57;99984.74;;;5.01;100.00
50867;BME280;36839;51.946;21.002;2023-01-10T12:57:35;99988.73;;;5.02;100.00
50867;BME280;36839;51.946;21.002;2023-01-10T13:00:06;99990.79;;;5.01;100.00
50867;BME280;36839;51.946;21.002;2023-01-10T13:02:39;99995.14;;;5.04;100.00
50867;BME280;36839;51.946;21.002;2023-01-10T13:05:28;100000.86;;;5.06;100.00
50867;BME280;36839;51.946;21.002;2023-01-10T13:08:06;100007.45;;;5.02;100.00
50867;BME280;36839;51.946;21.002;2023-01-10T13:10:40;100009.60;;;5.03;100.00
50867;BME280;36839;51.946;21.002;2023-01-10T13:13:34;100013.72;;;5.03;100.00
50867;BME280;36839;51.946;21.002;2023-01-10T13:16:31;100017.42;;;5.03;100.00
50867;BME280;36839;51.946;21.002;2023-01-10T13:19:23;100027.67;;;5.01;100.00
50867;BME280;36839;51.946;21.002;2023-01-10T13:22:20;100038.86;;;5.00;100.00
50867;BME280;36839;51.946;21.002;2023-01-10T13:25:00;100042.98;;;4.95;100.00
50867;BME280;36839;51.946;21.002;2023-01-10T13:27:32;100045.41;;;4.94;100.00
50867;BME280;36839;51.946;21.002;2023-01-10T13:30:02;100049.44;;;4.93;100.00
50867;BME280;36839;51.946;21.002;2023-01-10T13:32:32;100053.24;;;4.92;100.00
50867;BME280;36839;51.946;21.002;2023-01-10T13:35:14;100049.66;;;4.89;100.00
50867;BME280;36839;51.946;21.002;2023-01-10T13:37:44;100056.31;;;4.90;100.00
50867;BME280;36839;51.946;21.002;2023-01-10T13:40:21;100055.63;;;4.88;100.00
50867;BME280;36839;51.946;21.002;2023-01-10T13:51:15;100066.71;;;4.85;100.00
50867;BME280;36839;51.946;21.002;2023-01-10T13:54:25;100067.45;;;4.83;100.00
50867;BME280;36839;51.946;21.002;2023-01-10T13:56:51;100070.41;;;4.80;100.00
50867;BME280;36839;51.946;21.002;2023-01-10T14:02:15;100082.73;;;4.80;100.00
50867;BME280;36839;51.946;21.002;2023-01-10T14:05:03;100086.39;;;4.77;100.00
50867;BME280;36839;51.946;21.002;2023-01-10T14:10:23;100088.72;;;4.76;100.00
50867;BME280;36839;51.946;21.002;2023-01-10T14:12:56;100091.99;;;4.74;100.00
50867;BME280;36839;51.946;21.002;2023-01-10T14:15:29;100095.19;;;4.73;100.00
50867;BME280;36839;51.946;21.002;2023-01-10T14:20:43;100109.65;;;4.71;100.00
50867;BME280;36839;51.946;21.002;2023-01-10T14:23:18;100115.86;;;4.70;100.00
50867;BME280;36839;51.946;21.002;2023-01-10T14:25:52;100109.93;;;4.72;100.00
50867;BME280;36839;51.946;21.002;2023-01-10T14:28:26;100106.52;;;4.71;100.00
50867;BME280;36839;51.946;21.002;2023-01-10T14:31:07;100111.95;;;4.70;100.00
50867;BME280;36839;51.946;21.002;2023-01-10T14:33:36;100113.83;;;4.66;100.00
50867;BME280;36839;51.946;21.002;2023-01-10T14:36:13;100118.28;;;4.63;100.00
50867;BME280;36839;51.946;21.002;2023-01-10T14:38:43;100118.05;;;4.57;100.00
50867;BME280;36839;51.946;21.002;2023-01-10T14:45:00;100119.49;;;4.50;100.00
50867;BME280;36839;51.946;21.002;2023-01-10T14:46:57;100125.48;;;4.46;100.00
50867;BME280;36839;51.946;21.002;2023-01-10T14:49:40;100124.99;;;4.45;100.00
50867;BME280;36839;51.946;21.002;2023-01-10T14:52:22;100125.31;;;4.43;100.00
50867;BME280;36839;51.946;21.002;2023-01-10T14:55:15;100124.36;;;4.42;100.00